Time;durP1;ratioP1;P1;durP2;ratioP2;P2;SDS_P1;SDS_P2;PMS_P1;PMS_P2;Temp;Humidity;BMP_temperature;BMP_pressure;BME280_temperature;BME280_humidity;BME280_pressure;Samples;Min_cycle;Max_cycle;Signal;HPM_P1;HPM_P2
2021/04/03 00:00:23;;;;;;;10.52;6.88;;;;;;;2.23;66.67;98826.19;5010177;28;20571;-64
2021/04/03 00:02:48;;;;;;;15.13;7.45;;;;;;;2.19;66.54;98823.84;5010156;28;20051;-64
2021/04/03 00:05:17;;;;;;;11.02;7.00;;;;;;;2.01;66.70;98790.56;5009981;28;20030;-62
2021/04/03 00:07:43;;;;;;;19.00;6.65;;;;;;;2.11;66.50;98805.84;5010265;28;20046;-61
2021/04/03 00:10:16;;;;;;;11.80;6.75;;;;;;;2.27;66.77;98830.34;5010352;28;20052;-64
2021/04/03 00:12:43;;;;;;;13.90;7.32;;;;;;;2.25;66.21;98837.50;5010136;28;20055;-64
2021/04/03 00:15:10;;;;;;;13.60;7.30;;;;;;;2.25;66.60;98826.13;5010345;28;20112;-64
2021/04/03 00:17:35;;;;;;;14.38;6.97;;;;;;;1.66;66.37;98726.75;5010325;28;20092;-62
2021/04/03 00:20:01;;;;;;;11.05;7.00;;;;;;;2.24;66.60;98824.41;5010533;28;20504;-63
2021/04/03 00:22:27;;;;;;;14.23;7.70;;;;;;;2.23;67.03;98820.91;5009077;28;20046;-64
2021/04/03 00:24:52;;;;;;;13.63;7.68;;;;;;;2.19;67.10;98823.84;5009966;28;20037;-62
2021/04/03 00:27:18;;;;;;;15.73;6.93;;;;;;;2.21;66.74;98822.81;5010265;28;20062;-61
2021/04/03 00:29:43;;;;;;;12.77;7.00;;;;;;;2.18;66.80;98823.00;5010311;28;20046;-65
2021/04/03 00:32:09;;;;;;;17.95;7.28;;;;;;;2.21;67.11;98827.25;5009952;28;20476;-65
2021/04/03 00:34:35;;;;;;;17.10;7.70;;;;;;;2.20;66.95;98836.94;5010087;28;20040;-64
2021/04/03 00:37:01;;;;;;;16.52;7.60;;;;;;;2.05;66.88;98806.19;5010158;28;20026;-64
2021/04/03 00:39:26;;;;;;;11.82;7.07;;;;;;;2.04;66.99;98800.09;5010170;28;20453;-64
2021/04/03 00:41:52;;;;;;;14.60;7.50;;;;;;;2.18;67.28;98822.16;5010328;28;20058;-64
2021/04/03 00:44:18;;;;;;;15.95;7.22;;;;;;;2.04;67.24;98800.09;5009961;28;20096;-65
2021/04/03 00:46:43;;;;;;;13.25;7.10;;;;;;;2.18;67.57;98838.00;5009829;28;20084;-65
2021/04/03 00:49:09;;;;;;;14.57;7.00;;;;;;;2.15;67.75;98826.66;5025353;28;20040;-64
2021/04/03 00:51:35;;;;;;;15.10;7.20;;;;;;;2.14;67.59;98827.59;5008805;28;20037;-64
2021/04/03 00:54:01;;;;;;;15.20;6.93;;;;;;;2.01;67.38;98800.28;5012017;28;20048;-64
2021/04/03 00:56:26;;;;;;;11.40;7.25;;;;;;;2.01;67.82;98805.56;5013866;28;20071;-63
2021/04/03 00:58:54;;;;;;;12.10;8.02;;;;;;;1.93;67.64;98787.56;5012830;28;20029;-62
2021/04/03 01:01:20;;;;;;;14.40;6.90;;;;;;;2.11;67.82;98817.25;5013818;28;20030;-65
2021/04/03 01:03:46;;;;;;;10.80;6.35;;;;;;;1.91;67.54;98783.31;5013391;28;20143;-64
2021/04/03 01:06:12;;;;;;;12.25;6.82;;;;;;;2.12;68.05;98826.84;5012529;28;20432;-64
2021/04/03 01:08:37;;;;;;;11.10;6.28;;;;;;;2.01;67.94;98806.41;5013745;28;20034;-62
2021/04/03 01:11:03;;;;;;;13.07;6.78;;;;;;;2.08;67.35;98814.78;5013992;28;20084;-64
2021/04/03 01:14:01;;;;;;;14.57;6.97;;;;;;;2.22;68.56;98826.31;5013376;28;20042;-62
2021/04/03 01:16:38;;;;;;;11.48;6.22;;;;;;;2.06;68.08;98810.56;5013188;28;20033;-65
2021/04/03 01:19:25;;;;;;;16.98;7.22;;;;;;;2.22;68.69;98839.50;4998841;28;20172;-64
2021/04/03 01:22:12;;;;;;;14.05;7.05;;;;;;;2.19;68.54;98829.97;5013355;28;20036;-64
2021/04/03 01:25:12;;;;;;;12.77;6.38;;;;;;;2.17;68.78;98833.63;5011797;28;20041;-64
2021/04/03 01:28:07;;;;;;;16.35;7.00;;;;;;;2.13;68.77;98838.28;5018347;28;20050;-64
2021/04/03 01:30:35;;;;;;;10.27;6.20;;;;;;;1.76;67.89;98787.72;5013533;28;20195;-64
2021/04/03 01:33:16;;;;;;;11.70;6.32;;;;;;;2.04;68.68;98847.63;5013343;28;20037;-64
2021/04/03 01:36:03;;;;;;;16.55;6.78;;;;;;;2.06;69.03;98837.81;5013004;28;20125;-65
2021/04/03 01:38:34;;;;;;;13.75;7.15;;;;;;;1.99;68.41;98839.13;5013409;28;20045;-65
2021/04/03 01:41:01;;;;;;;15.88;7.40;;;;;;;1.78;68.53;98815.75;5012825;28;20029;-62
2021/04/03 01:43:30;;;;;;;15.00;7.47;;;;;;;1.93;68.80;98842.13;5013184;28;20567;-65
2021/04/03 01:45:56;;;;;;;14.68;8.38;;;;;;;1.94;68.70;98833.28;5013330;28;20037;-65
2021/04/03 01:48:23;;;;;;;19.30;8.93;;;;;;;1.86;68.73;98826.66;5013046;28;20052;-64
2021/04/03 01:50:49;;;;;;;27.50;9.45;;;;;;;1.85;68.79;98840.81;5013227;28;20397;-64
2021/04/03 01:53:18;;;;;;;23.08;9.38;;;;;;;1.50;68.84;98776.97;5012580;28;20045;-64
2021/04/03 01:55:45;;;;;;;26.20;10.57;;;;;;;1.86;68.83;98847.78;5010001;28;20038;-64
2021/04/03 01:58:11;;;;;;;26.35;11.40;;;;;;;1.82;69.28;98837.53;5012965;28;20046;-62
2021/04/03 02:00:38;;;;;;;30.92;12.30;;;;;;;1.86;69.15;98849.59;5012623;28;20034;-63
2021/04/03 02:03:05;;;;;;;20.83;10.90;;;;;;;1.79;69.22;98838.53;5012953;28;20037;-64
2021/04/03 02:05:33;;;;;;;30.02;11.32;;;;;;;1.82;69.01;98850.72;5011860;28;20489;-64
2021/04/03 02:08:00;;;;;;;23.88;11.40;;;;;;;1.78;69.23;98851.81;5012331;28;20498;-63
2021/04/03 02:10:28;;;;;;;23.27;11.55;;;;;;;1.55;69.40;98817.97;5012386;28;20525;-62
2021/04/03 02:12:54;;;;;;;23.75;11.60;;;;;;;1.72;69.32;98858.34;5012137;28;20040;-65
2021/04/03 02:15:22;;;;;;;20.33;10.23;;;;;;;1.69;69.48;98843.53;5021314;28;20034;-65
2021/04/03 02:17:50;;;;;;;22.13;10.82;;;;;;;1.67;69.25;98853.31;5012088;28;20041;-63
2021/04/03 02:20:16;;;;;;;17.00;10.23;;;;;;;1.65;69.54;98835.88;5011069;28;20057;-62
2021/04/03 02:22:43;;;;;;;22.20;9.90;;;;;;;1.62;69.37;98846.63;5012003;28;20486;-62
2021/04/03 02:25:13;;;;;;;23.05;9.95;;;;;;;1.50;69.80;98822.69;5022002;28;20577;-64
2021/04/03 02:27:40;;;;;;;19.40;9.48;;;;;;;1.32;69.41;98794.75;5011746;28;20494;-63
2021/04/03 02:30:15;;;;;;;21.00;9.60;;;;;;;1.53;70.22;98833.03;5012073;28;20064;-58
2021/04/03 02:32:49;;;;;;;23.58;10.07;;;;;;;1.53;70.22;98835.69;5012323;28;20045;-63
2021/04/03 02:35:18;;;;;;;15.77;9.32;;;;;;;1.52;70.09;98847.19;5012400;28;20107;-64
2021/04/03 02:37:46;;;;;;;17.20;8.43;;;;;;;1.46;70.25;98836.13;5011686;28;20038;-63
2021/04/03 02:40:13;;;;;;;18.95;9.68;;;;;;;1.48;70.40;98837.75;5011674;28;20413;-63
2021/04/03 02:43:12;;;;;;;19.52;9.85;;;;;;;1.51;71.29;98837.56;5012058;28;20065;-63
2021/04/03 02:45:46;;;;;;;17.85;9.20;;;;;;;1.47;70.63;98829.91;5017296;28;20046;-63
2021/04/03 02:48:17;;;;;;;15.27;9.50;;;;;;;1.46;70.69;98837.00;5011620;28;20057;-61
2021/04/03 02:50:45;;;;;;;22.52;9.77;;;;;;;1.41;70.25;98837.25;5011469;28;20046;-63
2021/04/03 02:53:13;;;;;;;19.20;9.90;;;;;;;1.07;70.44;98790.91;5011670;28;20343;-64
2021/04/03 02:55:52;;;;;;;21.55;9.23;;;;;;;0.90;71.10;98753.19;5010279;28;20514;-62
2021/04/03 02:58:20;;;;;;;22.08;9.93;;;;;;;1.41;71.11;98836.38;5006418;28;20104;-65
2021/04/03 03:00:47;;;;;;;21.20;9.25;;;;;;;1.47;70.55;98846.59;5009878;28;20045;-62
2021/04/03 03:03:14;;;;;;;17.35;9.20;;;;;;;1.48;70.86;98840.38;5011500;28;20026;-65
2021/04/03 03:05:42;;;;;;;16.73;9.68;;;;;;;1.55;71.09;98841.72;5011663;28;20061;-64
2021/04/03 03:08:09;;;;;;;20.90;9.00;;;;;;;1.57;70.86;98844.28;5011057;28;20039;-63
2021/04/03 03:10:36;;;;;;;19.38;9.27;;;;;;;1.68;70.53;98839.19;5011594;28;20045;-64
2021/04/03 03:13:02;;;;;;;16.83;9.05;;;;;;;1.68;70.23;98820.72;5009755;28;20178;-63
2021/04/03 03:15:31;;;;;;;20.17;9.13;;;;;;;1.76;70.60;98822.91;5010873;28;20041;-65
2021/04/03 03:17:57;;;;;;;21.65;8.93;;;;;;;1.56;69.91;98777.44;5010750;28;20045;-64
2021/04/03 03:20:24;;;;;;;17.15;9.73;;;;;;;2.06;69.94;98834.34;5010592;28;20310;-65
2021/04/03 03:22:50;;;;;;;19.58;9.05;;;;;;;2.03;69.30;98805.44;5010955;28;20057;-62
2021/04/03 03:25:15;;;;;;;15.90;8.23;;;;;;;2.25;69.31;98834.03;5011036;28;20092;-65
2021/04/03 03:27:45;;;;;;;16.17;8.98;;;;;;;2.37;69.40;98833.25;5009402;28;20544;-66
2021/04/03 03:30:14;;;;;;;19.27;8.60;;;;;;;2.12;68.99;98755.56;5010687;28;20046;-64
2021/04/03 03:32:39;;;;;;;20.60;8.57;;;;;;;2.87;68.00;98815.13;5010829;28;20049;-66
2021/04/03 03:35:05;;;;;;;25.42;12.60;;;;;;;3.32;66.94;98829.00;5011024;28;20037;-63
2021/04/03 03:37:32;;;;;;;28.88;16.60;;;;;;;3.95;65.28;98821.25;5014425;28;20125;-63
2021/04/03 03:39:58;;;;;;;27.33;13.93;;;;;;;4.74;62.63;98818.34;5010775;28;20077;-65
2021/04/03 03:42:24;;;;;;;17.05;8.30;;;;;;;5.47;59.87;98815.63;5010722;28;20045;-63
2021/04/03 03:44:51;;;;;;;16.52;9.50;;;;;;;5.92;58.66;98822.00;5010494;28;20038;-63
2021/04/03 03:47:17;;;;;;;16.38;9.35;;;;;;;6.14;57.88;98808.75;5009246;28;20030;-64
2021/04/03 03:49:43;;;;;;;15.27;8.40;;;;;;;6.54;56.25;98812.72;5010261;28;20042;-64
2021/04/03 03:52:08;;;;;;;17.05;8.98;;;;;;;6.56;56.51;98813.44;5025667;28;20437;-64
2021/04/03 03:54:34;;;;;;;14.85;8.10;;;;;;;6.45;56.45;98821.44;5010003;28;20030;-64
2021/04/03 03:57:01;;;;;;;15.48;8.70;;;;;;;6.22;56.27;98833.88;5010592;28;20405;-63
2021/04/03 03:59:27;;;;;;;16.58;8.20;;;;;;;5.65;56.77;98764.72;5010169;28;20041;-64
2021/04/03 04:01:52;;;;;;;17.30;8.60;;;;;;;6.14;56.77;98823.84;5008439;28;20030;-64
2021/04/03 04:04:18;;;;;;;14.90;8.60;;;;;;;6.31;56.42;98810.06;5010332;28;20045;-62
2021/04/03 04:06:43;;;;;;;18.13;8.35;;;;;;;6.91;55.09;98826.69;5009786;28;20038;-64
2021/04/03 04:09:09;;;;;;;17.02;8.13;;;;;;;7.60;53.38;98815.59;5010259;28;20052;-63
2021/04/03 04:11:34;;;;;;;13.32;7.38;;;;;;;7.85;52.44;98820.69;5010725;28;20413;-64
2021/04/03 04:14:00;;;;;;;16.33;8.35;;;;;;;7.83;52.40;98828.78;5009549;28;20034;-65
2021/04/03 04:16:25;;;;;;;21.58;8.30;;;;;;;8.00;51.80;98819.34;5008639;28;20037;-64
2021/04/03 04:18:51;;;;;;;19.98;8.10;;;;;;;8.70;50.35;98825.81;5010367;28;20552;-66
2021/04/03 04:21:17;;;;;;;26.00;8.93;;;;;;;10.18;47.34;98823.94;5010091;28;20041;-64
2021/04/03 04:23:44;;;;;;;17.70;8.77;;;;;;;12.02;43.61;98817.59;5009974;28;20041;-64
2021/04/03 04:26:09;;;;;;;20.90;9.27;;;;;;;13.79;39.92;98823.16;5025284;28;20057;-65
2021/04/03 04:28:35;;;;;;;19.23;9.13;;;;;;;15.18;37.41;98809.38;5010216;28;20165;-64
2021/04/03 04:31:01;;;;;;;23.55;8.43;;;;;;;16.58;35.09;98817.19;5010428;28;20492;-65
2021/04/03 04:33:26;;;;;;;20.90;7.60;;;;;;;17.70;32.61;98824.25;5010167;28;20045;-64
2021/04/03 04:35:52;;;;;;;18.17;7.45;;;;;;;18.61;30.67;98819.88;5009509;28;20405;-63
2021/04/03 04:38:18;;;;;;;14.77;7.45;;;;;;;19.21;29.33;98820.13;5009891;28;20040;-64
2021/04/03 04:40:44;;;;;;;13.50;7.53;;;;;;;19.72;28.27;98814.34;5010053;28;20061;-66
2021/04/03 04:43:09;;;;;;;16.88;7.15;;;;;;;20.27;27.51;98808.69;5008975;28;20159;-63
2021/04/03 04:45:35;;;;;;;13.45;6.95;;;;;;;20.61;26.72;98825.72;5010071;28;20117;-64
2021/04/03 04:48:00;;;;;;;12.35;6.55;;;;;;;20.71;26.69;98795.34;5010123;28;20179;-64
2021/04/03 04:50:26;;;;;;;16.33;6.90;;;;;;;21.50;25.45;98819.66;5009926;28;20026;-62
2021/04/03 04:52:51;;;;;;;11.82;6.78;;;;;;;22.18;24.53;98819.13;5024837;28;20045;-66
2021/04/03 04:55:17;;;;;;;13.38;6.30;;;;;;;22.64;23.84;98822.44;5008656;28;20022;-65
2021/04/03 04:57:42;;;;;;;12.90;6.53;;;;;;;23.15;22.75;98819.50;5009848;28;20042;-63
2021/04/03 05:00:08;;;;;;;14.57;7.03;;;;;;;23.30;21.85;98765.31;5010065;28;20498;-63
2021/04/03 05:02:34;;;;;;;10.45;6.63;;;;;;;24.13;21.16;98827.50;5008150;28;20129;-66
2021/04/03 05:04:59;;;;;;;10.52;6.50;;;;;;;24.84;20.33;98815.63;5008440;28;20240;-63
2021/04/03 05:07:25;;;;;;;10.13;6.43;;;;;;;25.64;19.29;98834.13;5009838;28;20030;-63
2021/04/03 05:09:50;;;;;;;11.05;6.00;;;;;;;25.87;18.67;98827.66;5008495;28;20229;-63
2021/04/03 05:12:16;;;;;;;9.35;6.07;;;;;;;25.89;18.56;98841.94;5007399;28;20073;-64
2021/04/03 05:14:41;;;;;;;8.50;5.85;;;;;;;25.18;19.25;98845.88;5009651;28;20155;-63
2021/04/03 05:17:07;;;;;;;7.70;4.65;;;;;;;24.18;19.63;98835.81;5009754;28;20049;-68
2021/04/03 05:19:32;;;;;;;10.55;4.50;;;;;;;23.85;19.73;98834.44;5008267;28;20040;-61
2021/04/03 05:21:58;;;;;;;7.43;4.55;;;;;;;24.57;18.98;98831.72;5009109;28;20137;-65
2021/04/03 05:24:23;;;;;;;6.72;4.05;;;;;;;25.73;17.27;98837.28;5009717;28;20117;-64
2021/04/03 05:26:49;;;;;;;4.10;3.33;;;;;;;26.86;16.38;98834.59;5009756;28;20140;-65
2021/04/03 05:29:14;;;;;;;4.45;3.28;;;;;;;27.90;15.32;98834.56;5009502;28;20052;-64
2021/04/03 05:31:40;;;;;;;9.57;4.22;;;;;;;28.23;15.04;98801.53;5008436;28;20045;-63
2021/04/03 05:34:05;;;;;;;6.20;3.85;;;;;;;29.15;14.26;98847.13;5008632;28;20046;-62
2021/04/03 05:36:31;;;;;;;7.13;3.53;;;;;;;29.86;13.65;98847.53;5008585;28;20116;-66
2021/04/03 05:38:57;;;;;;;6.85;4.32;;;;;;;30.30;13.31;98850.84;5009502;28;20037;-66
2021/04/03 05:41:22;;;;;;;7.10;4.45;;;;;;;30.62;12.82;98827.59;5013156;28;20509;-66
2021/04/03 05:43:51;;;;;;;11.85;4.78;;;;;;;29.87;13.08;98840.91;5012586;28;20041;-67
2021/04/03 05:46:20;;;;;;;6.15;3.72;;;;;;;28.58;13.15;98848.81;5012953;28;20120;-66
2021/04/03 05:48:46;;;;;;;6.53;3.58;;;;;;;27.79;14.38;98844.66;5013076;28;20037;-62
2021/04/03 05:51:16;;;;;;;5.13;3.88;;;;;;;27.48;13.66;98794.03;5011214;28;20409;-65
2021/04/03 05:53:42;;;;;;;8.48;3.88;;;;;;;28.82;13.52;98842.88;5011245;28;20045;-64
2021/04/03 05:56:08;;;;;;;5.18;3.60;;;;;;;29.62;12.79;98841.75;5010818;28;20348;-67
2021/04/03 05:58:36;;;;;;;6.10;3.60;;;;;;;30.50;12.21;98831.47;5011945;28;20539;-67
2021/04/03 06:01:03;;;;;;;5.95;3.42;;;;;;;31.89;11.19;98834.66;5009885;28;20029;-65
2021/04/03 06:03:29;;;;;;;6.18;3.80;;;;;;;33.09;10.41;98811.22;5009914;28;20038;-64
2021/04/03 06:05:54;;;;;;;8.38;4.40;;;;;;;34.33;10.04;98835.03;5026433;28;20155;-63
2021/04/03 06:08:20;;;;;;;13.82;5.63;;;;;;;35.07;9.46;98824.13;5010853;28;20028;-66
2021/04/03 06:11:16;;;;;;;7.28;4.65;;;;;;;35.64;9.47;98839.56;5011921;28;20533;-63
2021/04/03 06:14:02;;;;;;;12.93;6.60;;;;;;;35.35;9.47;98835.22;5012414;28;20049;-60
2021/04/03 06:16:35;;;;;;;17.10;6.55;;;;;;;36.15;9.49;98836.63;5011134;28;20041;-62
2021/04/03 06:19:11;;;;;;;12.18;6.30;;;;;;;36.44;8.45;98833.34;5006396;28;20084;-62
2021/04/03 06:21:39;;;;;;;13.70;6.63;;;;;;;36.67;8.44;98830.50;5012455;28;20084;-61
2021/04/03 06:24:21;;;;;;;13.15;6.95;;;;;;;37.28;7.13;98821.44;5012780;28;20073;-60
2021/04/03 06:27:09;;;;;;;11.20;5.18;;;;;;;37.50;7.47;98828.03;5012135;28;20053;-62
2021/04/03 06:29:39;;;;;;;6.72;4.20;;;;;;;37.14;7.18;98820.78;5012404;28;20049;-60
2021/04/03 06:32:08;;;;;;;6.57;3.28;;;;;;;36.73;6.52;98818.06;5012271;28;20030;-61
2021/04/03 06:34:44;;;;;;;10.18;3.00;;;;;;;36.13;7.06;98838.94;5012515;28;20066;-61
2021/04/03 06:37:10;;;;;;;4.45;2.83;;;;;;;36.09;7.29;98830.38;5012125;28;20124;-61
2021/04/03 06:40:02;;;;;;;3.58;2.92;;;;;;;37.10;5.89;98825.34;5012307;28;20117;-64
2021/04/03 06:42:57;;;;;;;8.13;3.58;;;;;;;37.66;5.89;98824.75;5011889;28;20108;-62
2021/04/03 06:45:28;;;;;;;9.73;3.75;;;;;;;37.95;6.42;98826.00;4999716;28;20026;-61
2021/04/03 06:48:02;;;;;;;13.00;5.22;;;;;;;38.24;6.15;98838.44;5012121;28;20050;-63
2021/04/03 06:50:36;;;;;;;6.30;3.63;;;;;;;37.96;6.50;98828.47;5011321;28;20034;-63
2021/04/03 06:53:11;;;;;;;16.67;5.10;;;;;;;35.72;7.84;98849.94;5012334;28;20080;-62
2021/04/03 06:55:39;;;;;;;10.88;5.20;;;;;;;35.13;8.15;98836.81;5011706;28;20442;-63
2021/04/03 06:58:06;;;;;;;11.30;5.32;;;;;;;35.17;8.28;98843.41;5011935;28;20053;-64
2021/04/03 07:00:33;;;;;;;10.48;4.82;;;;;;;34.96;8.24;98831.03;5012019;28;20454;-61
2021/04/03 07:03:01;;;;;;;11.43;5.03;;;;;;;34.85;8.21;98838.78;5026959;28;20493;-63
2021/04/03 07:05:32;;;;;;;10.02;5.32;;;;;;;34.63;7.42;98843.09;5011604;28;20041;-62
2021/04/03 07:08:00;;;;;;;13.93;5.00;;;;;;;34.57;8.03;98839.59;5011673;28;20041;-60
2021/04/03 07:10:27;;;;;;;10.13;4.50;;;;;;;33.45;8.23;98799.59;5011396;28;20049;-61
2021/04/03 07:12:54;;;;;;;10.82;4.97;;;;;;;33.22;8.88;98854.81;5011251;28;20459;-62
2021/04/03 07:15:22;;;;;;;11.85;5.57;;;;;;;32.63;9.02;98849.44;5011323;28;20038;-61
2021/04/03 07:17:49;;;;;;;18.17;6.43;;;;;;;30.36;10.62;98828.47;5011076;28;20053;-61
2021/04/03 07:20:17;;;;;;;14.55;5.47;;;;;;;27.43;12.79;98849.78;5010737;28;20072;-61
2021/04/03 07:22:46;;;;;;;10.10;5.50;;;;;;;24.87;14.72;98861.69;5008389;28;20029;-61
2021/04/03 07:25:12;;;;;;;7.78;5.65;;;;;;;22.77;16.72;98876.88;5010078;28;20592;-63
2021/04/03 07:27:46;;;;;;;11.65;5.63;;;;;;;20.91;18.04;98868.78;5009600;28;20042;-61
2021/04/03 07:30:13;;;;;;;9.75;6.05;;;;;;;19.60;19.35;98865.69;5010941;28;20046;-61
2021/04/03 07:32:44;;;;;;;10.43;5.47;;;;;;;18.89;20.25;98844.19;5010119;28;20096;-61
2021/04/03 07:35:13;;;;;;;9.63;4.88;;;;;;;19.69;19.76;98866.34;5010366;28;20038;-61
2021/04/03 07:37:39;;;;;;;11.70;4.80;;;;;;;23.17;16.12;98840.03;5010505;28;20439;-61
2021/04/03 07:40:05;;;;;;;5.03;3.90;;;;;;;27.25;12.66;98834.50;5010519;28;20061;-62
2021/04/03 07:42:36;;;;;;;9.32;4.22;;;;;;;30.31;10.02;98838.69;5010431;28;20517;-61
2021/04/03 07:45:04;;;;;;;3.38;2.38;;;;;;;31.79;8.76;98787.66;5010759;28;20033;-61
2021/04/03 07:47:45;;;;;;;4.03;1.80;;;;;;;33.69;7.73;98848.59;5004512;28;20034;-62
2021/04/03 07:50:11;;;;;;;1.95;1.50;;;;;;;34.22;7.03;98836.34;5007905;28;20386;-63
2021/04/03 07:53:03;;;;;;;4.25;1.63;;;;;;;35.59;6.01;98839.69;5010185;28;20045;-61
2021/04/03 07:55:36;;;;;;;2.47;1.70;;;;;;;34.74;6.67;98836.22;5008414;28;20040;-61
2021/04/03 07:58:28;;;;;;;1.95;1.20;;;;;;;34.61;6.47;98843.44;5009363;28;20100;-62
2021/04/03 08:00:54;;;;;;;5.70;1.55;;;;;;;33.95;6.68;98842.63;5008747;28;20034;-62
2021/04/03 08:03:25;;;;;;;3.65;1.85;;;;;;;32.33;7.03;98848.66;5008155;28;20033;-62
2021/04/03 08:06:04;;;;;;;8.90;2.03;;;;;;;29.91;8.86;98847.56;5009455;28;20378;-61
2021/04/03 08:08:32;;;;;;;1.83;1.60;;;;;;;27.36;10.29;98852.75;5009827;28;20044;-62
2021/04/03 08:11:10;;;;;;;5.85;1.80;;;;;;;25.57;12.03;98849.91;5004945;28;20041;-62
2021/04/03 08:13:39;;;;;;;3.97;1.90;;;;;;;23.00;13.19;98869.03;5007481;28;20063;-61
2021/04/03 08:16:06;;;;;;;3.58;1.90;;;;;;;21.15;14.91;98858.19;5010382;28;20038;-61
2021/04/03 08:18:33;;;;;;;6.28;2.00;;;;;;;20.09;16.06;98866.41;5007388;28;20037;-62
2021/04/03 08:20:59;;;;;;;5.97;2.20;;;;;;;19.35;16.76;98864.41;5010187;28;20057;-62
2021/04/03 08:23:38;;;;;;;3.28;1.90;;;;;;;18.78;17.87;98851.03;5010352;28;20445;-61
2021/04/03 08:26:05;;;;;;;5.50;2.40;;;;;;;18.37;17.87;98868.13;5009350;28;20053;-61
2021/04/03 08:28:32;;;;;;;2.22;1.73;;;;;;;18.05;18.51;98878.50;5008661;28;20038;-62
2021/04/03 08:30:58;;;;;;;7.53;1.98;;;;;;;17.76;18.61;98861.34;5009193;28;20466;-62
2021/04/03 08:33:30;;;;;;;4.10;1.90;;;;;;;17.17;19.42;98828.94;5010167;28;20065;-61
2021/04/03 08:35:56;;;;;;;4.05;2.17;;;;;;;16.83;19.83;98845.75;5008570;28;20044;-61
2021/04/03 08:38:25;;;;;;;4.10;1.20;;;;;;;16.46;20.04;98841.16;5009550;28;20417;-60
2021/04/03 08:40:54;;;;;;;5.00;1.70;;;;;;;16.37;20.23;98844.94;5009823;28;21506;-59
2021/04/03 08:43:26;;;;;;;7.18;2.10;;;;;;;16.31;20.43;98843.00;5006585;28;20081;-62
2021/04/03 08:45:53;;;;;;;5.50;1.45;;;;;;;16.28;20.38;98838.81;4992926;28;20453;-62
2021/04/03 08:48:19;;;;;;;4.72;1.55;;;;;;;16.29;20.13;98835.09;5009934;28;20033;-62
2021/04/03 08:50:48;;;;;;;9.05;2.13;;;;;;;16.35;20.29;98844.28;5010061;28;20092;-63
2021/04/03 08:53:14;;;;;;;6.13;1.83;;;;;;;16.38;20.52;98832.28;5009968;28;20046;-64
2021/04/03 08:55:39;;;;;;;4.78;2.30;;;;;;;16.37;20.73;98836.84;5008889;28;20040;-63
2021/04/03 08:58:06;;;;;;;3.90;2.78;;;;;;;16.15;20.93;98838.59;5009581;28;20060;-57
2021/04/03 09:00:33;;;;;;;5.15;3.20;;;;;;;15.77;21.19;98834.88;5008657;28;20034;-62
2021/04/03 09:03:00;;;;;;;12.35;3.58;;;;;;;15.19;21.88;98831.75;5009647;28;20121;-70
2021/04/03 09:05:26;;;;;;;6.90;3.97;;;;;;;14.88;22.90;98832.63;5009451;28;20037;-60
2021/04/03 09:07:52;;;;;;;7.63;3.35;;;;;;;14.58;23.31;98838.59;5008927;28;20038;-65
2021/04/03 09:10:23;;;;;;;6.60;3.30;;;;;;;14.29;23.78;98826.59;5001020;28;20092;-59
2021/04/03 09:12:50;;;;;;;8.38;3.17;;;;;;;14.17;24.15;98850.34;4996038;28;20069;-59
2021/04/03 09:15:25;;;;;;;10.07;3.75;;;;;;;13.69;24.86;98809.03;5012579;28;20154;-60
2021/04/03 09:17:52;;;;;;;9.32;3.03;;;;;;;13.57;24.83;98841.66;5004240;28;20140;-61
2021/04/03 09:20:29;;;;;;;5.50;3.30;;;;;;;13.24;25.79;98844.25;5012623;28;20038;-61
2021/04/03 09:23:03;;;;;;;9.07;3.10;;;;;;;13.03;27.17;98867.09;5013098;28;20073;-60
2021/04/03 09:25:30;;;;;;;4.90;2.80;;;;;;;12.80;27.80;98857.94;5009616;28;20034;-62
2021/04/03 09:28:11;;;;;;;9.20;3.00;;;;;;;12.47;29.42;98846.03;5010903;28;20057;-67
2021/04/03 09:30:40;;;;;;;5.45;2.75;;;;;;;12.19;29.25;98851.59;5011173;28;20068;-60
2021/04/03 09:33:21;;;;;;;7.47;2.10;;;;;;;12.13;29.34;98871.00;5011488;28;20477;-57
2021/04/03 09:35:48;;;;;;;4.65;1.77;;;;;;;11.74;29.36;98855.25;5010925;28;20048;-62
2021/04/03 09:38:15;;;;;;;9.95;1.92;;;;;;;11.69;29.74;98874.47;5012027;28;20076;-61
2021/04/03 09:40:45;;;;;;;6.50;1.90;;;;;;;11.52;30.73;98886.91;5013358;28;20050;-62
2021/04/03 09:43:12;;;;;;;2.60;1.92;;;;;;;10.81;31.46;98813.53;5028645;28;20030;-63
2021/04/03 09:45:38;;;;;;;5.93;2.38;;;;;;;10.90;32.14;98899.16;5012929;28;20029;-60
2021/04/03 09:48:06;;;;;;;6.32;2.75;;;;;;;10.23;32.98;98836.88;5013706;28;20573;-62
2021/04/03 09:50:31;;;;;;;3.33;1.80;;;;;;;10.40;32.78;98891.44;5013483;28;20073;-63
2021/04/03 09:52:57;;;;;;;4.45;1.88;;;;;;;10.35;32.24;98889.19;5013292;28;20072;-64
2021/04/03 09:55:23;;;;;;;2.92;2.08;;;;;;;10.42;32.69;98898.38;5013240;28;20482;-64
2021/04/03 09:57:48;;;;;;;3.85;1.80;;;;;;;10.60;32.33;98895.78;5013114;28;20037;-63
2021/04/03 10:00:14;;;;;;;3.75;1.88;;;;;;;10.85;31.83;98884.50;5013275;28;20126;-62
2021/04/03 10:02:40;;;;;;;2.63;1.70;;;;;;;11.12;31.48;98885.53;5013208;28;20038;-61
2021/04/03 10:05:06;;;;;;;1.98;1.77;;;;;;;11.55;30.56;98875.88;5013398;28;20461;-62
2021/04/03 10:07:32;;;;;;;3.25;1.75;;;;;;;11.86;30.16;98888.91;5011977;28;20045;-63
2021/04/03 10:09:58;;;;;;;2.75;2.17;;;;;;;12.03;29.49;98892.56;5012862;28;20034;-63
2021/04/03 10:12:23;;;;;;;3.90;1.80;;;;;;;11.96;29.60;98867.34;5013096;28;20402;-63
2021/04/03 10:14:49;;;;;;;3.53;2.15;;;;;;;12.17;29.65;98871.53;5012992;28;20120;-63
2021/04/03 10:17:15;;;;;;;5.35;2.25;;;;;;;12.37;29.71;98890.94;5012674;28;20069;-63
2021/04/03 10:19:40;;;;;;;5.70;2.25;;;;;;;12.46;29.48;98879.25;5012375;28;20036;-64
2021/04/03 10:22:06;;;;;;;5.22;2.50;;;;;;;12.57;29.26;98877.31;5013053;28;20038;-61
2021/04/03 10:24:31;;;;;;;6.97;2.38;;;;;;;12.74;29.14;98878.22;5012683;28;20034;-66
2021/04/03 10:26:57;;;;;;;3.45;2.22;;;;;;;12.81;29.23;98876.56;5011925;28;20457;-64
2021/04/03 10:29:23;;;;;;;3.33;2.05;;;;;;;12.94;29.12;98873.41;5011350;28;20045;-64
2021/04/03 10:31:48;;;;;;;3.85;2.22;;;;;;;13.06;28.93;98872.13;5012684;28;20046;-62
2021/04/03 10:34:14;;;;;;;4.07;1.80;;;;;;;12.94;28.69;98849.25;5012427;28;20054;-63
2021/04/03 10:36:39;;;;;;;2.90;1.90;;;;;;;13.06;28.49;98879.34;5012330;28;20125;-64
2021/04/03 10:39:07;;;;;;;8.13;2.15;;;;;;;12.96;28.63;98868.72;5012985;28;20113;-64
2021/04/03 10:41:33;;;;;;;2.53;1.63;;;;;;;12.49;28.89;98811.81;5012736;28;20527;-64
2021/04/03 10:43:58;;;;;;;2.97;1.90;;;;;;;12.57;28.91;98861.19;5012754;28;20040;-63
2021/04/03 10:46:24;;;;;;;3.20;1.75;;;;;;;12.48;28.60;98866.50;5012635;28;20093;-63
2021/04/03 10:48:49;;;;;;;7.15;2.17;;;;;;;12.52;28.79;98867.03;5011033;28;20029;-62
2021/04/03 10:51:15;;;;;;;6.60;2.10;;;;;;;12.47;28.57;98856.78;5012064;28;20037;-63
2021/04/03 10:53:40;;;;;;;2.40;1.83;;;;;;;12.52;28.16;98863.50;5011940;28;20564;-63
2021/04/03 10:56:06;;;;;;;3.03;1.60;;;;;;;12.46;28.00;98859.63;5012107;28;20040;-59
2021/04/03 10:58:31;;;;;;;5.53;1.50;;;;;;;12.34;27.83;98851.00;5012096;28;20038;-63
2021/04/03 11:00:57;;;;;;;5.18;2.00;;;;;;;12.38;27.91;98863.09;5012012;28;20052;-64
2021/04/03 11:03:22;;;;;;;4.22;1.83;;;;;;;12.39;28.13;98872.84;5012004;28;20033;-64
2021/04/03 11:05:48;;;;;;;3.47;1.63;;;;;;;12.43;27.91;98868.84;5011395;28;20034;-63
2021/04/03 11:08:13;;;;;;;5.07;1.88;;;;;;;12.45;27.94;98874.88;5012112;28;20041;-64
2021/04/03 11:10:40;;;;;;;4.88;1.52;;;;;;;12.52;27.55;98861.66;5011551;28;20409;-62
2021/04/03 11:13:05;;;;;;;3.08;1.48;;;;;;;12.45;27.04;98841.84;5011805;28;20041;-63
2021/04/03 11:15:31;;;;;;;4.05;1.15;;;;;;;12.54;27.08;98862.34;5012199;28;20033;-62
2021/04/03 11:17:57;;;;;;;6.90;1.38;;;;;;;12.58;27.24;98860.19;5011610;28;20038;-62
2021/04/03 11:20:22;;;;;;;2.53;1.10;;;;;;;12.77;26.75;98857.22;5011941;28;20164;-63
2021/04/03 11:22:48;;;;;;;4.90;1.30;;;;;;;12.70;26.48;98831.22;5012031;28;20111;-63
2021/04/03 11:25:14;;;;;;;4.40;1.77;;;;;;;13.09;26.79;98870.13;5011688;28;20226;-63
2021/04/03 11:27:40;;;;;;;3.90;1.17;;;;;;;13.06;26.12;98847.09;5011137;28;20072;-62
2021/04/03 11:30:16;;;;;;;6.70;1.83;;;;;;;13.03;26.32;98882.34;5011656;28;20050;-62
2021/04/03 11:32:46;;;;;;;6.43;2.97;;;;;;;12.93;28.60;98882.47;5011668;28;20038;-62
2021/04/03 11:35:18;;;;;;;8.50;3.47;;;;;;;12.58;29.70;98865.56;5011361;28;20040;-62
2021/04/03 11:37:47;;;;;;;4.70;3.00;;;;;;;12.35;30.44;98899.16;5011492;28;20044;-61